createdAt,value
2024-01-08T00:00:56.652Z,5.28
2024-01-08T00:03:24.195Z,3.58
2024-01-08T00:05:51.832Z,6.50
2024-01-08T00:08:19.777Z,6.63
2024-01-08T00:10:47.471Z,7.53
2024-01-08T00:13:14.974Z,16.42
2024-01-08T00:15:42.501Z,4.65
2024-01-08T00:18:10.059Z,6.75
2024-01-08T00:20:37.643Z,4.55
2024-01-08T00:23:05.369Z,6.50
2024-01-08T00:25:32.892Z,5.82
2024-01-08T00:28:01.655Z,5.20
2024-01-08T00:30:29.262Z,5.07
2024-01-08T00:32:56.906Z,5.35
2024-01-08T00:35:24.423Z,3.58
2024-01-08T00:37:51.926Z,5.30
2024-01-08T00:40:20.219Z,11.07
2024-01-08T00:42:47.667Z,5.28
2024-01-08T00:45:15.291Z,7.22
2024-01-08T00:47:42.878Z,6.75
2024-01-08T00:50:15.441Z,4.72
2024-01-08T00:52:43.085Z,5.43
2024-01-08T00:55:13.143Z,7.10
2024-01-08T00:57:41.293Z,6.88
2024-01-08T01:00:12.003Z,5.82
2024-01-08T01:02:42.726Z,5.80
2024-01-08T01:05:10.486Z,6.35
2024-01-08T01:07:38.043Z,3.50
2024-01-08T01:10:05.694Z,10.55
2024-01-08T01:12:35.559Z,3.40
2024-01-08T01:15:03.110Z,6.18
2024-01-08T01:17:30.754Z,7.72
2024-01-08T01:19:58.361Z,5.90
2024-01-08T01:22:26.317Z,8.63
2024-01-08T01:24:53.864Z,5.75
2024-01-08T01:27:21.573Z,5.63
2024-01-08T01:29:49.340Z,5.32
2024-01-08T01:32:16.836Z,8.98
2024-01-08T01:34:44.376Z,3.67
2024-01-08T01:37:11.842Z,7.75
2024-01-08T01:39:39.327Z,5.57
2024-01-08T01:42:06.827Z,7.97
2024-01-08T01:44:34.559Z,3.25
2024-01-08T01:47:02.379Z,6.20
2024-01-08T01:49:30.169Z,6.03
2024-01-08T01:51:57.973Z,7.72
2024-01-08T01:54:27.516Z,6.90
2024-01-08T01:56:56.891Z,4.43
2024-01-08T01:59:25.905Z,5.30
2024-01-08T02:01:53.657Z,4.63
2024-01-08T02:04:22.033Z,4.38
2024-01-08T02:06:50.376Z,5.25
2024-01-08T02:09:18.109Z,5.50
2024-01-08T02:11:46.033Z,5.18
2024-01-08T02:14:17.182Z,5.70
2024-01-08T02:16:45.202Z,5.68
2024-01-08T02:19:13.216Z,4.28
2024-01-08T02:21:40.816Z,5.15
2024-01-08T02:24:08.471Z,6.82
2024-01-08T02:26:37.939Z,5.90
2024-01-08T02:29:06.083Z,5.22
2024-01-08T02:31:33.890Z,6.00
2024-01-08T02:34:01.673Z,5.20
2024-01-08T02:36:29.202Z,4.75
2024-01-08T02:38:56.854Z,5.13
2024-01-08T04:51:47.034Z,5.75
2024-01-08T04:54:14.733Z,5.80
2024-01-08T04:56:42.291Z,4.22
2024-01-08T04:59:09.900Z,4.97
2024-01-08T05:01:38.766Z,6.85
2024-01-08T05:04:09.070Z,5.15
2024-01-08T05:06:37.546Z,4.55
2024-01-08T05:09:05.052Z,4.85
2024-01-08T05:11:32.802Z,5.07
2024-01-08T05:14:00.478Z,4.40
2024-01-08T05:16:28.104Z,5.95
2024-01-08T05:18:55.787Z,4.35
2024-01-08T05:21:23.355Z,5.43
2024-01-08T05:23:52.573Z,5.05
2024-01-08T05:26:20.201Z,5.25
2024-01-08T05:28:47.845Z,4.93
2024-01-08T05:31:15.371Z,4.78
2024-01-08T05:33:42.998Z,3.78
2024-01-08T05:36:10.587Z,4.72
2024-01-08T05:41:05.608Z,6.55
2024-01-08T05:43:38.828Z,5.57
2024-01-08T05:46:07.668Z,6.13
2024-01-08T05:48:39.124Z,4.60
2024-01-08T05:51:06.831Z,3.35
2024-01-08T05:53:34.601Z,4.95
2024-01-08T05:56:02.192Z,4.30
2024-01-08T05:58:30.038Z,7.90
2024-01-08T06:00:58.490Z,6.25
2024-01-08T06:03:26.112Z,6.68
2024-01-08T06:05:53.807Z,5.55
2024-01-08T06:08:21.406Z,5.65
2024-01-08T06:10:49.839Z,6.25
2024-01-08T06:13:17.463Z,6.25
2024-01-08T06:15:45.605Z,6.72
2024-01-08T06:18:13.261Z,7.32
2024-01-08T06:20:40.937Z,7.38
2024-01-08T06:23:08.509Z,5.00
2024-01-08T06:25:36.072Z,9.10
2024-01-08T06:28:03.625Z,7.10
2024-01-08T06:30:31.233Z,5.97
2024-01-08T06:32:58.883Z,7.90
2024-01-08T06:35:26.639Z,7.75
2024-01-08T06:37:54.160Z,7.55
2024-01-08T06:40:22.055Z,7.25
2024-01-08T06:42:59.999Z,8.20
2024-01-08T06:45:29.278Z,9.13
2024-01-08T06:47:57.088Z,8.98
2024-01-08T06:50:24.948Z,9.18
2024-01-08T06:52:52.714Z,6.75
2024-01-08T06:55:20.379Z,8.80
2024-01-08T06:57:50.406Z,10.65
2024-01-08T07:00:19.343Z,9.05
2024-01-08T07:02:47.095Z,11.02
2024-01-08T07:05:15.643Z,11.18
2024-01-08T07:07:43.258Z,15.13
2024-01-08T07:10:11.052Z,10.85
2024-01-08T07:12:38.827Z,10.10
2024-01-08T07:15:06.747Z,8.63
2024-01-08T07:17:34.650Z,8.35
2024-01-08T07:20:03.682Z,10.52
2024-01-08T07:22:31.249Z,7.93
2024-01-08T07:24:59.093Z,9.45
2024-01-08T07:27:27.247Z,6.20
2024-01-08T07:29:55.272Z,7.30
2024-01-08T07:32:23.034Z,7.97
2024-01-08T07:34:50.627Z,11.30
2024-01-08T07:37:18.184Z,7.60
2024-01-08T07:39:45.752Z,7.03
2024-01-08T07:42:13.289Z,9.88
2024-01-08T07:44:40.859Z,5.75
2024-01-08T07:47:08.412Z,8.30
2024-01-08T07:49:39.283Z,7.03
2024-01-08T07:52:07.174Z,8.40
2024-01-08T07:54:34.670Z,8.00
2024-01-08T07:57:07.312Z,7.70
2024-01-08T07:59:36.765Z,6.10
2024-01-08T08:02:05.623Z,7.88
2024-01-08T08:04:33.298Z,7.22
2024-01-08T08:07:00.945Z,7.22
2024-01-08T08:09:29.671Z,5.95
2024-01-08T08:11:57.285Z,6.95
2024-01-08T08:14:24.847Z,6.43
2024-01-08T08:16:52.402Z,7.32
2024-01-08T08:19:21.664Z,6.60
2024-01-08T08:21:52.859Z,5.90
2024-01-08T08:24:20.660Z,6.32
2024-01-08T08:26:48.176Z,7.85
2024-01-08T08:29:16.003Z,6.75
2024-01-08T08:31:43.523Z,7.30
2024-01-08T08:34:11.239Z,9.98
2024-01-08T08:36:40.320Z,9.00
2024-01-08T08:39:07.941Z,8.63
2024-01-08T08:41:35.582Z,8.27
2024-01-08T08:44:03.978Z,10.57
2024-01-08T08:46:31.797Z,11.23
2024-01-08T08:48:59.357Z,13.80
2024-01-08T08:51:27.139Z,10.82
2024-01-08T08:53:56.084Z,9.48
2024-01-08T08:56:23.616Z,9.10
2024-01-08T08:58:51.318Z,10.13
2024-01-08T09:01:18.944Z,9.57
2024-01-08T09:03:46.607Z,10.40
2024-01-08T09:06:14.871Z,7.95
2024-01-08T09:08:42.788Z,10.07
2024-01-08T09:11:11.039Z,8.38
2024-01-08T09:13:38.779Z,12.00
2024-01-08T09:16:06.352Z,11.90
2024-01-08T09:18:34.034Z,12.38
2024-01-08T09:21:01.647Z,9.13
2024-01-08T09:23:29.198Z,11.15
2024-01-08T09:25:56.810Z,8.73
2024-01-08T09:28:24.321Z,9.75
2024-01-08T09:30:52.010Z,10.25
2024-01-08T09:33:19.879Z,9.10
2024-01-08T09:35:48.504Z,8.90
2024-01-08T09:38:16.164Z,9.70
2024-01-08T09:40:43.952Z,8.30
2024-01-08T09:43:13.497Z,7.55
2024-01-08T09:45:44.581Z,9.13
2024-01-08T09:48:12.511Z,7.22
2024-01-08T09:50:40.391Z,12.20
2024-01-08T09:53:08.101Z,10.25
2024-01-08T09:55:35.830Z,9.13
2024-01-08T09:58:05.054Z,17.95
2024-01-08T10:00:32.592Z,10.85
2024-01-08T10:03:00.116Z,9.38
2024-01-08T10:05:30.929Z,8.40
2024-01-08T10:08:04.153Z,9.43
2024-01-08T10:10:32.018Z,12.32
2024-01-08T10:12:59.883Z,8.50
2024-01-08T10:15:28.590Z,10.63
2024-01-08T10:17:57.484Z,9.50
2024-01-08T10:20:25.654Z,11.02
2024-01-08T10:23:06.437Z,9.30
2024-01-08T10:25:34.331Z,11.65
2024-01-08T10:28:02.129Z,8.68
2024-01-08T10:30:30.138Z,9.82
2024-01-08T10:32:59.984Z,10.45
2024-01-08T10:35:31.869Z,12.40
2024-01-08T10:38:00.506Z,10.98
2024-01-08T10:40:31.599Z,11.45
2024-01-08T10:42:59.217Z,7.82
2024-01-08T10:45:26.728Z,12.63
2024-01-08T10:48:03.598Z,13.80
2024-01-08T10:50:31.777Z,13.02
2024-01-08T10:52:59.529Z,12.70
2024-01-08T10:55:27.361Z,11.38
2024-01-08T10:58:05.663Z,9.88
2024-01-08T11:00:33.480Z,10.63
2024-01-08T11:03:01.502Z,13.50
2024-01-08T11:05:31.062Z,16.67
2024-01-08T11:07:58.860Z,9.65
2024-01-08T11:10:26.911Z,9.68
2024-01-08T11:12:58.705Z,9.95
2024-01-08T11:15:30.472Z,12.65
2024-01-08T11:18:04.840Z,8.48
2024-01-08T11:20:35.891Z,10.90
2024-01-08T11:23:03.765Z,10.18
2024-01-08T11:25:31.500Z,11.20
2024-01-08T11:28:00.289Z,11.43
2024-01-08T11:30:27.898Z,11.40
2024-01-08T11:33:30.925Z,11.25
2024-01-08T11:36:08.691Z,14.85
2024-01-08T11:38:39.450Z,13.88
2024-01-08T11:41:09.053Z,12.02
2024-01-08T11:43:37.457Z,12.20
2024-01-08T11:46:05.513Z,12.30
2024-01-08T11:48:33.210Z,10.82
2024-01-08T11:51:00.863Z,14.82
2024-01-08T11:53:28.553Z,11.90
2024-01-08T11:55:56.133Z,10.15
2024-01-08T11:58:23.750Z,9.52
2024-01-08T12:00:51.317Z,11.75
2024-01-08T12:03:25.190Z,13.88
2024-01-08T12:06:09.033Z,10.05
2024-01-08T12:08:36.831Z,10.60
2024-01-08T12:11:06.256Z,11.90
2024-01-08T12:13:33.906Z,13.35
2024-01-08T12:16:02.653Z,12.40
2024-01-08T12:18:31.177Z,10.27
2024-01-08T12:20:58.762Z,11.68
2024-01-08T12:23:27.716Z,10.15
2024-01-08T12:25:55.396Z,11.25
2024-01-08T12:28:22.890Z,11.35
2024-01-08T12:30:53.936Z,7.47
2024-01-08T12:33:22.738Z,8.30
2024-01-08T12:35:54.498Z,9.63
2024-01-08T12:38:22.857Z,11.80
2024-01-08T12:40:53.551Z,7.43
2024-01-08T12:43:21.536Z,10.68
2024-01-08T12:45:51.266Z,9.43
2024-01-08T12:48:19.182Z,12.43
2024-01-08T12:50:52.054Z,8.70
2024-01-08T12:53:20.420Z,8.55
2024-01-08T12:55:49.627Z,14.43
2024-01-08T12:58:17.115Z,10.55
2024-01-08T13:00:46.542Z,11.48
2024-01-08T13:03:14.300Z,10.85
2024-01-08T13:05:42.554Z,13.63
2024-01-08T13:08:10.143Z,17.23
2024-01-08T13:10:37.654Z,14.48
2024-01-08T13:13:05.165Z,15.85
2024-01-08T13:15:32.698Z,10.20
2024-01-08T13:18:00.398Z,13.30
2024-01-08T13:20:30.137Z,11.88
2024-01-08T13:22:58.061Z,8.32
2024-01-08T13:25:25.624Z,11.35
2024-01-08T13:27:53.129Z,11.18
2024-01-08T13:30:20.891Z,13.25
2024-01-08T13:32:48.730Z,9.55
2024-01-08T13:35:16.578Z,9.77
2024-01-08T13:37:44.268Z,16.13
2024-01-08T13:40:12.801Z,8.77
2024-01-08T13:42:40.345Z,14.30
2024-01-08T13:45:09.646Z,9.15
2024-01-08T13:47:38.388Z,10.23
2024-01-08T13:50:08.552Z,11.70
2024-01-08T13:52:36.211Z,9.85
2024-01-08T13:55:03.734Z,14.45
2024-01-08T13:57:31.326Z,12.75
2024-01-08T14:00:00.577Z,12.32
2024-01-08T14:02:28.718Z,12.63
2024-01-08T14:04:56.414Z,15.02
2024-01-08T14:07:24.237Z,12.05
2024-01-08T14:09:51.802Z,12.20
2024-01-08T14:12:19.289Z,8.65
2024-01-08T14:14:46.921Z,15.20
2024-01-08T14:17:14.596Z,10.43
2024-01-08T14:19:42.296Z,8.80
2024-01-08T14:22:10.050Z,12.55
2024-01-08T14:24:38.890Z,13.13
2024-01-08T14:27:07.423Z,12.73
2024-01-08T14:29:35.749Z,14.90
2024-01-08T14:32:03.509Z,10.30
2024-01-08T14:34:31.257Z,13.38
2024-01-08T14:36:58.853Z,13.98
2024-01-08T14:39:28.325Z,17.50
2024-01-08T14:41:55.934Z,15.27
2024-01-08T14:44:23.478Z,12.68
2024-01-08T14:46:51.137Z,14.43
2024-01-08T14:49:22.069Z,17.25
2024-01-08T14:51:49.593Z,12.38
2024-01-08T14:54:17.072Z,9.77
2024-01-08T14:56:44.680Z,13.35
2024-01-08T14:59:13.257Z,15.90
2024-01-08T15:01:40.840Z,8.85
2024-01-08T15:04:08.884Z,12.43
2024-01-08T15:06:36.442Z,10.77
2024-01-08T15:09:06.152Z,13.10
2024-01-08T15:11:34.474Z,12.05
2024-01-08T15:14:02.048Z,14.48
2024-01-08T15:16:29.629Z,17.15
2024-01-08T15:18:57.195Z,12.60
2024-01-08T15:21:24.820Z,13.32
2024-01-08T15:23:52.314Z,12.43
2024-01-08T15:26:21.241Z,11.05
2024-01-08T15:28:48.822Z,8.80
2024-01-08T15:31:16.801Z,18.00
2024-01-08T15:33:48.396Z,12.88
2024-01-08T15:36:16.357Z,14.93
2024-01-08T15:48:34.694Z,12.60
2024-01-08T15:51:04.687Z,15.27
2024-01-08T15:53:32.268Z,15.75
2024-01-08T15:55:59.862Z,15.40
2024-01-08T15:58:27.487Z,25.63
2024-01-08T16:42:49.044Z,15.70
2024-01-08T16:45:16.660Z,16.85
2024-01-08T16:47:51.666Z,9.75
2024-01-08T16:50:23.015Z,16.02
2024-01-08T16:52:50.680Z,15.15
2024-01-08T16:55:18.315Z,13.07
2024-01-08T16:57:45.860Z,14.27
2024-01-08T17:00:13.762Z,13.25
2024-01-08T17:02:41.516Z,19.30
2024-01-08T17:05:09.460Z,13.23
2024-01-08T17:07:37.069Z,13.18
2024-01-08T17:10:04.823Z,19.58
2024-01-08T17:12:32.585Z,11.80
2024-01-08T17:15:00.303Z,14.07
2024-01-08T17:17:28.367Z,16.15
2024-01-08T17:19:56.129Z,15.82
2024-01-08T17:22:24.624Z,22.13
2024-01-08T17:24:52.163Z,14.10
2024-01-08T17:27:19.804Z,12.90
2024-01-08T17:29:47.308Z,14.35
2024-01-08T17:32:15.034Z,11.05
2024-01-08T17:34:42.869Z,15.25
2024-01-08T17:37:13.874Z,15.32
2024-01-08T17:39:41.738Z,10.82
2024-01-08T17:42:09.254Z,12.30
2024-01-08T17:44:36.930Z,14.85
2024-01-08T17:47:04.651Z,13.98
2024-01-08T17:49:32.276Z,12.30
2024-01-08T17:52:00.351Z,13.57
2024-01-08T17:54:27.903Z,14.77
2024-01-08T17:56:59.859Z,10.70
2024-01-08T17:59:31.984Z,11.50
2024-01-08T18:01:59.992Z,15.13
2024-01-08T18:04:27.667Z,15.95
2024-01-08T18:06:57.694Z,11.43
2024-01-08T18:09:25.483Z,13.70
2024-01-08T18:11:52.969Z,13.75
2024-01-08T18:14:22.027Z,14.55
2024-01-08T18:16:51.775Z,10.38
2024-01-08T18:19:19.597Z,15.77
2024-01-08T18:21:47.224Z,16.17
2024-01-08T18:24:23.594Z,20.50
2024-01-08T18:26:58.453Z,15.27
2024-01-08T18:29:26.074Z,11.43
2024-01-08T18:31:53.673Z,17.33
2024-01-08T18:34:21.316Z,12.15
2024-01-08T18:36:49.035Z,13.75
2024-01-08T18:39:20.493Z,10.60
2024-01-08T18:41:49.776Z,12.32
2024-01-08T18:44:18.699Z,14.38
2024-01-08T18:46:46.341Z,12.52
2024-01-08T18:49:14.003Z,16.48
2024-01-08T18:51:41.620Z,18.27
2024-01-08T18:54:09.664Z,16.95
2024-01-08T18:56:37.725Z,16.00
2024-01-08T18:59:05.227Z,16.48
2024-01-08T19:01:32.777Z,17.17
2024-01-08T19:04:01.193Z,15.13
2024-01-08T19:06:30.737Z,15.15
2024-01-08T19:08:59.024Z,13.93
2024-01-08T19:11:27.117Z,16.67
2024-01-08T19:13:54.660Z,11.88
2024-01-08T19:16:22.557Z,9.82
2024-01-08T19:18:50.569Z,16.23
2024-01-08T19:21:18.425Z,18.42
2024-01-08T19:23:46.046Z,9.90
2024-01-08T19:26:14.046Z,15.82
2024-01-08T19:28:41.892Z,14.85
2024-01-08T19:31:10.381Z,13.05
2024-01-08T19:33:38.262Z,22.55
2024-01-08T19:36:06.248Z,16.85
2024-01-08T19:38:34.253Z,18.83
2024-01-08T19:41:01.849Z,20.90
2024-01-08T19:43:29.436Z,21.50
2024-01-08T19:45:56.997Z,18.25
2024-01-08T19:48:24.835Z,24.95
2024-01-08T19:50:52.653Z,15.95
2024-01-08T19:53:21.215Z,14.23
2024-01-08T19:55:48.706Z,12.13
2024-01-08T19:58:16.363Z,15.68
2024-01-08T20:00:43.980Z,18.52
2024-01-08T20:03:11.593Z,16.83
2024-01-08T20:05:39.445Z,13.30
2024-01-08T20:08:07.419Z,13.98
2024-01-08T20:10:35.031Z,18.85
2024-01-08T20:13:04.945Z,17.55
2024-01-08T20:15:32.820Z,12.88
2024-01-08T20:18:00.648Z,17.70
2024-01-08T20:20:28.472Z,19.40
2024-01-08T20:22:55.974Z,15.75
2024-01-08T20:25:23.993Z,21.58
2024-01-08T20:27:51.910Z,19.33
2024-01-08T20:30:19.524Z,19.65
2024-01-08T20:32:49.423Z,14.13
2024-01-08T20:35:17.466Z,17.50
2024-01-08T20:37:45.230Z,19.77
2024-01-08T20:40:13.510Z,15.25
2024-01-08T20:42:41.116Z,16.20
2024-01-08T20:45:08.742Z,24.38
2024-01-08T20:47:36.277Z,17.13
2024-01-08T20:50:05.127Z,18.20
2024-01-08T20:52:32.695Z,22.45
2024-01-08T20:55:00.373Z,17.52
2024-01-08T20:57:27.893Z,17.27
2024-01-08T20:59:55.429Z,15.00
2024-01-08T21:02:23.006Z,19.75
2024-01-08T21:04:50.488Z,20.35
2024-01-08T21:07:18.057Z,15.73
2024-01-08T21:09:47.507Z,12.43
2024-01-08T21:12:15.603Z,20.52
2024-01-08T21:14:43.288Z,19.10
2024-01-08T21:17:11.493Z,15.60
2024-01-08T21:19:39.164Z,18.13
2024-01-08T21:22:07.940Z,16.33
2024-01-08T21:24:35.490Z,11.15
2024-01-08T21:27:02.980Z,18.63
2024-01-08T21:29:30.946Z,19.17
2024-01-08T21:31:58.541Z,16.52
2024-01-08T21:34:28.645Z,12.88
2024-01-08T21:36:57.672Z,14.18
2024-01-08T21:39:25.192Z,17.15
2024-01-08T21:41:52.875Z,15.75
2024-01-08T21:44:20.392Z,16.30
2024-01-08T21:46:48.195Z,17.77
2024-01-08T21:49:17.605Z,18.52
2024-01-08T21:51:45.369Z,14.80
2024-01-08T21:54:12.832Z,17.48
2024-01-08T21:56:40.462Z,18.20
2024-01-08T21:59:08.080Z,19.23
2024-01-08T22:01:35.651Z,16.73
2024-01-08T22:04:03.218Z,13.45
2024-01-08T22:06:30.851Z,15.15
2024-01-08T22:08:58.534Z,33.50
2024-01-08T22:11:26.139Z,19.88
2024-01-08T22:13:54.918Z,20.30
2024-01-08T22:16:22.402Z,21.88
2024-01-08T22:18:49.948Z,32.40
2024-01-08T22:21:18.488Z,19.15
2024-01-08T22:23:46.116Z,15.63
2024-01-08T22:26:13.783Z,18.08
2024-01-08T22:28:41.306Z,15.30
2024-01-08T22:31:09.075Z,13.48
2024-01-08T22:33:36.767Z,18.98
2024-01-08T22:36:04.479Z,11.05
2024-01-08T22:38:32.008Z,21.27
2024-01-08T22:40:59.588Z,13.85
2024-01-08T22:43:27.592Z,18.15
2024-01-08T22:45:55.129Z,18.42
2024-01-08T22:48:22.886Z,13.02
2024-01-08T22:50:50.787Z,15.85
2024-01-08T22:53:18.585Z,14.13
2024-01-08T22:55:46.096Z,19.88
2024-01-08T22:58:13.772Z,18.58
2024-01-08T23:00:41.314Z,16.98
2024-01-08T23:03:09.203Z,19.85
2024-01-08T23:05:36.775Z,12.75
2024-01-08T23:08:04.478Z,16.80
2024-01-08T23:10:32.173Z,13.00
2024-01-08T23:12:59.759Z,12.50
2024-01-08T23:15:27.212Z,14.65
2024-01-08T23:17:54.835Z,31.60
2024-01-08T23:20:22.388Z,13.52
2024-01-08T23:22:51.648Z,33.45
2024-01-08T23:25:19.285Z,14.18
2024-01-08T23:27:46.817Z,15.38
2024-01-08T23:30:14.476Z,15.40
2024-01-08T23:32:42.145Z,15.02
2024-01-08T23:35:09.870Z,15.48
2024-01-08T23:37:37.441Z,12.15
2024-01-08T23:40:05.366Z,15.73
2024-01-08T23:42:32.876Z,13.90
2024-01-08T23:45:00.455Z,14.82
2024-01-08T23:47:28.104Z,11.70
2024-01-08T23:49:55.684Z,14.23
2024-01-08T23:52:23.187Z,14.80
2024-01-08T23:54:50.694Z,13.52
2024-01-08T23:57:18.131Z,11.15
2024-01-08T23:59:45.749Z,17.92
